Time;durP1;ratioP1;P1;durP2;ratioP2;P2;SDS_P1;SDS_P2;PMS_P1;PMS_P2;Temp;Humidity;BMP_temperature;BMP_pressure;BME280_temperature;BME280_humidity;BME280_pressure;Samples;Min_cycle;Max_cycle;Signal;HPM_P1;HPM_P2
2023/09/12 00:02:03;;;;;;;11.25;7.57;;;;;;;;;;4991979;28;20748;-84
2023/09/12 00:04:32;;;;;;;9.30;7.50;;;;;;;;;;4992319;28;20260;-83
2023/09/12 00:06:59;;;;;;;8.98;7.93;;;;;;;;;;4992690;28;20919;-83
2023/09/12 00:09:27;;;;;;;9.35;8.07;;;;;;;;;;4992986;28;20289;-85
2023/09/12 00:11:54;;;;;;;9.88;8.15;;;;;;;;;;4992685;28;20620;-84
2023/09/12 00:14:22;;;;;;;9.23;7.68;;;;;;;;;;4992683;28;20206;-84
2023/09/12 00:16:51;;;;;;;11.55;8.00;;;;;;;;;;4992425;28;20229;-84
2023/09/12 00:19:18;;;;;;;10.57;7.80;;;;;;;;;;4993026;28;20206;-84
2023/09/12 00:21:47;;;;;;;9.90;7.68;;;;;;;;;;4992764;28;20201;-84
2023/09/12 00:24:14;;;;;;;9.93;7.30;;;;;;;;;;4992390;28;20735;-84
2023/09/12 00:26:41;;;;;;;12.40;7.72;;;;;;;;;;4993206;28;20223;-84
2023/09/12 00:29:08;;;;;;;10.13;7.30;;;;;;;;;;4992406;28;20213;-84
2023/09/12 00:31:36;;;;;;;10.00;7.10;;;;;;;;;;4991989;28;20583;-84
2023/09/12 00:34:03;;;;;;;11.23;7.35;;;;;;;;;;4992726;28;20277;-84
2023/09/12 00:36:30;;;;;;;7.70;6.55;;;;;;;;;;4992610;28;20206;-84
2023/09/12 00:38:59;;;;;;;8.60;6.68;;;;;;;;;;4992456;28;20202;-84
2023/09/12 00:41:26;;;;;;;9.25;7.05;;;;;;;;;;4992220;28;20197;-84
2023/09/12 00:43:54;;;;;;;10.25;7.15;;;;;;;;;;4992595;28;20651;-84
2023/09/12 00:46:23;;;;;;;10.77;6.68;;;;;;;;;;4992097;28;20289;-83
2023/09/12 00:48:52;;;;;;;10.20;7.05;;;;;;;;;;4992807;28;20237;-84
2023/09/12 00:51:20;;;;;;;8.27;6.78;;;;;;;;;;4992880;28;20198;-83
2023/09/12 00:53:48;;;;;;;8.85;6.70;;;;;;;;;;4992472;28;20288;-83
2023/09/12 00:56:16;;;;;;;8.55;6.75;;;;;;;;;;4992315;28;20258;-83
2023/09/12 00:58:45;;;;;;;9.30;6.97;;;;;;;;;;4992314;28;20198;-83
2023/09/12 01:01:12;;;;;;;11.25;7.00;;;;;;;;;;4991719;28;20249;-84
2023/09/12 01:03:39;;;;;;;9.82;7.40;;;;;;;;;;4991885;28;20260;-84
2023/09/12 01:06:08;;;;;;;9.20;7.40;;;;;;;;;;4992277;28;20284;-83
2023/09/12 01:08:37;;;;;;;10.02;6.75;;;;;;;;;;4991987;28;20626;-85
2023/09/12 01:11:04;;;;;;;9.77;7.20;;;;;;;;;;4992427;28;20573;-83
2023/09/12 01:13:33;;;;;;;11.30;7.43;;;;;;;;;;4991892;28;20252;-85
2023/09/12 01:16:00;;;;;;;10.60;6.95;;;;;;;;;;4995529;28;20229;-82
2023/09/12 01:18:27;;;;;;;9.00;7.43;;;;;;;;;;4996047;28;20349;-85
2023/09/12 01:21:07;;;;;;;10.20;7.65;;;;;;;;;;4996288;28;20297;-86
2023/09/12 01:23:45;;;;;;;11.15;7.18;;;;;;;;;;4995771;28;20229;-84
2023/09/12 01:26:31;;;;;;;9.18;7.82;;;;;;;;;;4995633;28;20730;-85
2023/09/12 01:29:00;;;;;;;9.63;7.22;;;;;;;;;;4995284;28;20299;-83
2023/09/12 01:31:27;;;;;;;11.38;7.45;;;;;;;;;;4995886;28;20198;-85
2023/09/12 01:33:57;;;;;;;11.48;8.00;;;;;;;;;;4990849;28;20633;-86
2023/09/12 01:36:24;;;;;;;9.35;7.75;;;;;;;;;;4986907;28;20712;-85
2023/09/12 01:38:51;;;;;;;9.10;7.35;;;;;;;;;;4995816;28;20236;-85
2023/09/12 01:41:19;;;;;;;10.10;7.20;;;;;;;;;;4995527;28;20197;-85
2023/09/12 01:43:47;;;;;;;9.38;7.63;;;;;;;;;;4995071;28;20265;-85
2023/09/12 01:46:17;;;;;;;11.82;7.68;;;;;;;;;;4995890;28;20198;-85
2023/09/12 01:48:45;;;;;;;9.50;7.82;;;;;;;;;;4995251;28;20225;-85
2023/09/12 01:51:13;;;;;;;10.00;7.88;;;;;;;;;;4994761;28;20221;-85
2023/09/12 01:53:40;;;;;;;10.38;6.95;;;;;;;;;;4993880;28;20226;-85
2023/09/12 01:56:08;;;;;;;8.63;6.85;;;;;;;;;;4994713;28;20779;-85
2023/09/12 01:58:35;;;;;;;10.30;6.78;;;;;;;;;;4995050;28;20229;-84
2023/09/12 02:01:03;;;;;;;9.10;7.00;;;;;;;;;;4995067;28;20234;-85
2023/09/12 02:03:31;;;;;;;9.60;6.70;;;;;;;;;;4995198;28;20752;-85
2023/09/12 02:05:58;;;;;;;11.18;7.13;;;;;;;;;;4995176;28;20202;-85
2023/09/12 02:08:26;;;;;;;11.27;7.40;;;;;;;;;;4994859;28;20233;-85
2023/09/12 02:10:53;;;;;;;8.50;7.30;;;;;;;;;;4994861;28;20256;-85
2023/09/12 02:13:20;;;;;;;10.00;7.53;;;;;;;;;;4994669;28;20569;-86
2023/09/12 02:15:47;;;;;;;9.40;7.30;;;;;;;;;;4994864;28;20238;-85
2023/09/12 02:18:14;;;;;;;10.73;7.20;;;;;;;;;;4994447;28;20711;-85
2023/09/12 02:20:45;;;;;;;11.98;6.95;;;;;;;;;;4994989;28;20202;-85
2023/09/12 02:23:13;;;;;;;11.63;8.30;;;;;;;;;;4994601;28;20292;-84
2023/09/12 02:25:40;;;;;;;10.50;7.63;;;;;;;;;;4993911;28;20206;-85
2023/09/12 02:28:07;;;;;;;10.73;7.63;;;;;;;;;;4994504;28;20198;-85
2023/09/12 02:30:34;;;;;;;11.80;8.13;;;;;;;;;;4994833;28;20245;-85
2023/09/12 02:33:01;;;;;;;12.23;8.15;;;;;;;;;;4994460;28;20202;-84
2023/09/12 02:35:29;;;;;;;13.98;8.73;;;;;;;;;;4994755;28;20642;-83
2023/09/12 02:37:58;;;;;;;15.68;8.48;;;;;;;;;;4994797;28;20200;-85
2023/09/12 02:40:25;;;;;;;14.00;8.55;;;;;;;;;;4994399;28;20229;-85
2023/09/12 02:42:52;;;;;;;12.88;8.80;;;;;;;;;;4994102;28;20692;-85
2023/09/12 02:45:20;;;;;;;11.20;7.97;;;;;;;;;;4994436;28;20308;-84
2023/09/12 02:47:47;;;;;;;9.60;7.78;;;;;;;;;;4994364;28;20289;-84
2023/09/12 02:50:14;;;;;;;9.48;8.13;;;;;;;;;;4994160;28;20713;-85
2023/09/12 02:52:41;;;;;;;13.52;8.48;;;;;;;;;;4993976;28;20321;-84
2023/09/12 02:55:11;;;;;;;12.70;8.77;;;;;;;;;;4993968;28;20252;-85
2023/09/12 02:57:38;;;;;;;13.15;8.85;;;;;;;;;;4993687;28;20772;-85
2023/09/12 03:00:08;;;;;;;11.02;8.50;;;;;;;;;;4993960;28;20241;-85
2023/09/12 03:02:36;;;;;;;16.20;9.48;;;;;;;;;;4994354;28;20293;-85
2023/09/12 03:05:03;;;;;;;12.60;8.57;;;;;;;;;;4993915;28;20333;-85
2023/09/12 03:07:31;;;;;;;12.10;8.63;;;;;;;;;;4994069;28;20671;-84
2023/09/12 03:09:58;;;;;;;11.48;8.60;;;;;;;;;;4993860;28;20288;-85
2023/09/12 03:12:26;;;;;;;11.82;8.60;;;;;;;;;;4993499;28;20284;-85
2023/09/12 03:14:54;;;;;;;11.63;8.68;;;;;;;;;;4994403;28;20280;-85
2023/09/12 03:17:21;;;;;;;11.85;8.77;;;;;;;;;;4993758;28;20230;-86
2023/09/12 03:19:48;;;;;;;13.55;8.23;;;;;;;;;;4994179;28;20290;-85
2023/09/12 03:22:16;;;;;;;12.60;8.35;;;;;;;;;;4993497;28;20198;-85
2023/09/12 03:24:45;;;;;;;13.20;8.43;;;;;;;;;;4993134;28;20313;-84
2023/09/12 03:27:12;;;;;;;14.63;8.32;;;;;;;;;;4993674;28;20205;-84
2023/09/12 03:29:40;;;;;;;13.48;9.30;;;;;;;;;;4993523;28;20289;-85
2023/09/12 03:32:08;;;;;;;14.35;9.35;;;;;;;;;;4993924;28;20650;-85
2023/09/12 03:34:35;;;;;;;11.18;8.65;;;;;;;;;;4993320;28;20248;-84
2023/09/12 03:37:03;;;;;;;12.55;8.75;;;;;;;;;;4992463;28;20268;-84
2023/09/12 03:39:30;;;;;;;11.52;8.93;;;;;;;;;;4992834;28;20575;-85
2023/09/12 03:41:57;;;;;;;12.60;7.72;;;;;;;;;;4993261;28;20252;-85
2023/09/12 03:44:24;;;;;;;14.40;8.95;;;;;;;;;;4993217;28;20726;-85
2023/09/12 03:46:53;;;;;;;11.45;8.88;;;;;;;;;;4993435;28;20273;-85
2023/09/12 03:49:20;;;;;;;12.65;8.77;;;;;;;;;;4992986;28;20198;-84
2023/09/12 03:51:47;;;;;;;11.07;8.75;;;;;;;;;;4993352;28;20681;-84
2023/09/12 03:54:15;;;;;;;13.23;8.85;;;;;;;;;;4992632;28;20285;-84
2023/09/12 03:56:42;;;;;;;11.48;8.48;;;;;;;;;;4993082;28;20198;-85
2023/09/12 03:59:09;;;;;;;13.52;9.25;;;;;;;;;;4993152;28;20677;-84
2023/09/12 04:01:37;;;;;;;14.55;9.57;;;;;;;;;;4992742;28;20333;-82
2023/09/12 04:04:06;;;;;;;16.40;10.18;;;;;;;;;;4992915;28;20217;-85
2023/09/12 04:06:33;;;;;;;16.23;10.15;;;;;;;;;;4993177;28;20201;-83
2023/09/12 04:09:00;;;;;;;16.27;10.00;;;;;;;;;;4992847;28;20197;-85
2023/09/12 04:11:28;;;;;;;15.10;9.30;;;;;;;;;;4992826;28;20248;-85
2023/09/12 04:13:55;;;;;;;13.77;9.55;;;;;;;;;;4993710;28;20218;-83
2023/09/12 04:16:22;;;;;;;15.00;9.93;;;;;;;;;;4993963;28;20206;-85
2023/09/12 04:18:49;;;;;;;13.65;9.13;;;;;;;;;;4992541;28;20657;-85
2023/09/12 04:21:18;;;;;;;14.63;9.63;;;;;;;;;;4992845;28;20252;-86
2023/09/12 04:23:45;;;;;;;12.48;9.82;;;;;;;;;;4992778;28;20264;-85
2023/09/12 04:26:12;;;;;;;12.43;8.60;;;;;;;;;;4993174;28;20291;-84
2023/09/12 04:28:40;;;;;;;15.38;9.20;;;;;;;;;;4992495;28;20232;-83
2023/09/12 04:31:07;;;;;;;13.77;9.77;;;;;;;;;;4992679;28;20201;-82
2023/09/12 04:33:34;;;;;;;14.27;9.45;;;;;;;;;;4993008;28;20229;-85
2023/09/12 04:36:03;;;;;;;12.43;9.65;;;;;;;;;;4993384;28;20676;-83
2023/09/12 04:38:37;;;;;;;15.23;9.85;;;;;;;;;;4993226;28;20200;-83
2023/09/12 04:41:06;;;;;;;16.77;9.73;;;;;;;;;;4992698;28;20666;-83
2023/09/12 04:43:34;;;;;;;12.73;10.15;;;;;;;;;;4993566;28;20627;-85
2023/09/12 04:46:05;;;;;;;15.00;9.93;;;;;;;;;;4994335;28;20320;-85
2023/09/12 04:48:32;;;;;;;15.60;9.98;;;;;;;;;;4995478;28;20233;-84
2023/09/12 04:50:59;;;;;;;14.55;9.55;;;;;;;;;;4994012;28;20244;-86
2023/09/12 04:53:26;;;;;;;14.43;10.27;;;;;;;;;;4996924;28;20233;-83
2023/09/12 04:55:55;;;;;;;14.23;9.90;;;;;;;;;;4992382;28;20198;-86
2023/09/12 04:58:22;;;;;;;14.07;9.18;;;;;;;;;;4973011;28;20237;-84
2023/09/12 05:00:50;;;;;;;12.52;9.27;;;;;;;;;;4974225;28;20202;-84
2023/09/12 05:03:17;;;;;;;15.43;9.75;;;;;;;;;;4972694;28;20257;-84
2023/09/12 05:05:46;;;;;;;14.10;9.80;;;;;;;;;;4988036;28;20316;-83
2023/09/12 05:08:14;;;;;;;14.32;9.65;;;;;;;;;;4984890;28;20233;-82
2023/09/12 05:10:42;;;;;;;14.35;10.23;;;;;;;;;;4984711;28;20201;-84
2023/09/12 05:13:10;;;;;;;13.25;9.35;;;;;;;;;;4974859;28;20711;-83
2023/09/12 05:15:39;;;;;;;14.02;9.85;;;;;;;;;;4972301;28;20237;-84
2023/09/12 05:18:06;;;;;;;14.73;9.40;;;;;;;;;;4983161;28;20681;-83
2023/09/12 05:20:33;;;;;;;15.13;10.00;;;;;;;;;;4991235;28;20614;-82
2023/09/12 05:23:01;;;;;;;15.30;9.95;;;;;;;;;;4992801;28;20236;-83
2023/09/12 05:25:28;;;;;;;13.73;9.88;;;;;;;;;;4987677;28;20776;-83
2023/09/12 05:27:56;;;;;;;13.27;9.30;;;;;;;;;;4972594;28;20203;-84
2023/09/12 05:30:24;;;;;;;16.02;9.30;;;;;;;;;;4972231;28;20721;-83
2023/09/12 05:32:52;;;;;;;15.38;9.52;;;;;;;;;;4972959;28;20260;-81
2023/09/12 05:35:19;;;;;;;16.00;9.80;;;;;;;;;;4974546;28;20261;-83
2023/09/12 05:37:46;;;;;;;15.02;9.15;;;;;;;;;;4977078;28;20301;-85
2023/09/12 05:40:13;;;;;;;13.82;9.75;;;;;;;;;;4974736;28;20382;-84
2023/09/12 05:42:41;;;;;;;15.65;9.73;;;;;;;;;;4977347;28;20249;-83
2023/09/12 05:45:08;;;;;;;14.68;10.02;;;;;;;;;;4971539;28;21059;-83
2023/09/12 05:47:37;;;;;;;14.05;9.48;;;;;;;;;;4972154;28;20209;-83
2023/09/12 05:50:06;;;;;;;15.93;9.75;;;;;;;;;;4971632;28;20317;-83
2023/09/12 05:52:33;;;;;;;12.40;9.57;;;;;;;;;;4972139;28;20241;-83
2023/09/12 05:55:01;;;;;;;12.70;9.43;;;;;;;;;;4986738;28;20751;-82
2023/09/12 05:57:28;;;;;;;14.57;9.82;;;;;;;;;;4990135;28;20228;-83
2023/09/12 05:59:55;;;;;;;15.32;9.50;;;;;;;;;;4990785;28;20194;-83
2023/09/12 06:02:22;;;;;;;14.18;9.82;;;;;;;;;;4990741;28;20289;-83
2023/09/12 06:04:51;;;;;;;14.13;9.70;;;;;;;;;;4993595;28;20683;-82
2023/09/12 06:07:19;;;;;;;13.23;9.65;;;;;;;;;;4993906;28;20193;-83
2023/09/12 06:09:47;;;;;;;15.60;9.60;;;;;;;;;;4994288;28;20648;-83
2023/09/12 06:12:14;;;;;;;14.88;10.30;;;;;;;;;;4995091;28;20224;-83
2023/09/12 06:14:41;;;;;;;15.90;10.20;;;;;;;;;;4994677;28;20256;-83
2023/09/12 06:17:08;;;;;;;16.05;9.88;;;;;;;;;;4994443;28;20236;-84
2023/09/12 06:19:35;;;;;;;12.43;9.48;;;;;;;;;;4994827;28;20759;-82
2023/09/12 06:22:04;;;;;;;14.07;10.05;;;;;;;;;;4994338;28;20237;-83
2023/09/12 06:24:32;;;;;;;13.43;9.52;;;;;;;;;;4994272;28;20296;-83
2023/09/12 06:26:59;;;;;;;14.30;10.25;;;;;;;;;;4995000;28;20293;-83
2023/09/12 06:29:26;;;;;;;13.98;9.68;;;;;;;;;;4994851;28;20229;-83
2023/09/12 06:31:54;;;;;;;14.18;9.68;;;;;;;;;;4994316;28;20285;-83
2023/09/12 06:34:22;;;;;;;15.80;9.60;;;;;;;;;;4994401;28;20293;-84
2023/09/12 06:36:49;;;;;;;13.70;10.35;;;;;;;;;;4994734;28;20685;-83
2023/09/12 06:39:17;;;;;;;15.75;10.20;;;;;;;;;;4994464;28;20297;-83
2023/09/12 06:41:45;;;;;;;16.25;10.38;;;;;;;;;;4994109;28;20296;-83
2023/09/12 06:44:12;;;;;;;15.80;10.05;;;;;;;;;;4994031;28;20206;-83
2023/09/12 06:46:40;;;;;;;15.20;10.50;;;;;;;;;;4994700;28;20230;-83
2023/09/12 06:49:07;;;;;;;14.95;10.25;;;;;;;;;;4993933;28;20229;-83
2023/09/12 06:51:34;;;;;;;15.93;10.00;;;;;;;;;;4993885;28;20683;-83
2023/09/12 06:54:01;;;;;;;15.10;10.32;;;;;;;;;;4994504;28;20228;-83
2023/09/12 06:56:30;;;;;;;14.85;10.40;;;;;;;;;;4993905;28;21070;-83
2023/09/12 06:58:59;;;;;;;15.68;9.85;;;;;;;;;;4994037;28;20237;-83
2023/09/12 07:01:26;;;;;;;16.77;10.60;;;;;;;;;;4994065;28;20202;-83
2023/09/12 07:03:55;;;;;;;16.45;10.48;;;;;;;;;;4993790;28;20274;-82
2023/09/12 07:06:22;;;;;;;17.00;10.25;;;;;;;;;;4994035;28;20276;-83
2023/09/12 07:08:49;;;;;;;15.40;10.65;;;;;;;;;;4993545;28;20202;-83
2023/09/12 07:11:17;;;;;;;15.38;10.18;;;;;;;;;;4993853;28;20201;-83
2023/09/12 07:13:45;;;;;;;12.55;10.40;;;;;;;;;;4994154;28;20271;-83
2023/09/12 07:16:13;;;;;;;14.98;10.98;;;;;;;;;;4993924;28;20304;-83
2023/09/12 07:18:40;;;;;;;14.02;10.32;;;;;;;;;;4993208;28;20289;-82
2023/09/12 07:21:07;;;;;;;12.75;10.18;;;;;;;;;;4993744;28;20296;-83
2023/09/12 07:23:35;;;;;;;16.33;10.30;;;;;;;;;;4993567;28;20688;-82
2023/09/12 07:26:02;;;;;;;12.70;9.98;;;;;;;;;;4993381;28;20704;-83
2023/09/12 07:28:30;;;;;;;16.40;10.40;;;;;;;;;;4993420;28;20244;-82
2023/09/12 07:30:58;;;;;;;13.85;10.45;;;;;;;;;;4993711;28;20473;-83
2023/09/12 07:33:25;;;;;;;13.85;10.43;;;;;;;;;;4993042;28;20293;-83
2023/09/12 07:35:53;;;;;;;13.68;10.25;;;;;;;;;;4993226;28;20276;-82
2023/09/12 07:38:21;;;;;;;14.82;10.38;;;;;;;;;;4993101;28;20289;-83
2023/09/12 07:40:49;;;;;;;14.25;10.40;;;;;;;;;;4993399;28;20282;-83
2023/09/12 07:43:16;;;;;;;15.88;10.63;;;;;;;;;;4993767;28;20659;-83
2023/09/12 07:45:43;;;;;;;10.90;9.75;;;;;;;;;;4992836;28;20229;-82
2023/09/12 07:48:12;;;;;;;12.93;10.05;;;;;;;;;;4993103;28;20233;-85
2023/09/12 07:50:39;;;;;;;12.85;10.02;;;;;;;;;;4993714;28;20284;-82
2023/09/12 07:53:07;;;;;;;11.57;9.73;;;;;;;;;;4993072;28;20248;-83
2023/09/12 07:55:45;;;;;;;15.05;10.13;;;;;;;;;;4992988;28;20280;-83
2023/09/12 07:58:12;;;;;;;14.15;9.10;;;;;;;;;;4992840;28;20201;-83
2023/09/12 08:00:39;;;;;;;13.98;9.95;;;;;;;;;;4992422;28;20224;-83
2023/09/12 08:03:06;;;;;;;11.40;9.70;;;;;;;;;;4993085;28;20204;-83
2023/09/12 08:05:35;;;;;;;10.40;9.13;;;;;;;;;;4992668;28;20320;-82
2023/09/12 08:08:02;;;;;;;14.13;9.45;;;;;;;;;;4992622;28;20285;-83
2023/09/12 08:10:29;;;;;;;12.23;9.82;;;;;;;;;;4992866;28;20364;-83
2023/09/12 08:12:56;;;;;;;9.95;8.88;;;;;;;;;;4992698;28;20230;-83
2023/09/12 08:15:24;;;;;;;12.45;9.25;;;;;;;;;;4992924;28;20289;-82
2023/09/12 08:17:53;;;;;;;13.27;9.32;;;;;;;;;;4992320;28;20212;-82
2023/09/12 08:20:20;;;;;;;12.63;10.05;;;;;;;;;;4992740;28;20202;-82
2023/09/12 08:22:49;;;;;;;31.33;11.80;;;;;;;;;;4992463;28;20288;-82
2023/09/12 08:25:16;;;;;;;17.13;10.57;;;;;;;;;;4992089;28;20197;-83
2023/09/12 08:27:44;;;;;;;12.57;9.68;;;;;;;;;;4992442;28;20292;-83
2023/09/12 08:30:12;;;;;;;10.85;9.75;;;;;;;;;;4991803;28;20672;-82
2023/09/12 08:32:43;;;;;;;13.55;10.15;;;;;;;;;;4992324;28;20300;-82
2023/09/12 08:35:11;;;;;;;12.85;10.60;;;;;;;;;;4992572;28;20285;-83
2023/09/12 08:37:39;;;;;;;11.93;9.70;;;;;;;;;;4992514;28;20201;-82
2023/09/12 08:40:10;;;;;;;14.30;12.10;;;;;;;;;;4992517;28;20225;-82
2023/09/12 08:42:41;;;;;;;18.38;12.88;;;;;;;;;;4992324;28;20720;-83
2023/09/12 08:45:10;;;;;;;12.20;10.05;;;;;;;;;;4991844;28;20204;-82
2023/09/12 08:47:37;;;;;;;11.65;9.05;;;;;;;;;;4992131;28;20206;-82
2023/09/12 08:50:06;;;;;;;11.65;9.85;;;;;;;;;;4992271;28;20252;-82
2023/09/12 08:52:33;;;;;;;15.50;8.40;;;;;;;;;;4991780;28;20329;-82
2023/09/12 08:55:00;;;;;;;9.85;8.18;;;;;;;;;;4992216;28;20865;-83
2023/09/12 08:57:29;;;;;;;9.80;7.53;;;;;;;;;;4991869;28;20289;-83
2023/09/12 08:59:56;;;;;;;15.20;7.82;;;;;;;;;;4991997;28;20233;-83
2023/09/12 09:02:24;;;;;;;8.82;7.40;;;;;;;;;;4991872;28;20292;-82
2023/09/12 09:04:51;;;;;;;8.90;7.45;;;;;;;;;;4991976;28;20229;-82
2023/09/12 09:07:19;;;;;;;11.75;8.80;;;;;;;;;;4991911;28;20257;-83
2023/09/12 09:09:47;;;;;;;12.52;7.95;;;;;;;;;;4992133;28;20292;-82
2023/09/12 09:12:14;;;;;;;9.27;7.30;;;;;;;;;;4991508;28;20280;-82
2023/09/12 09:14:43;;;;;;;7.65;6.88;;;;;;;;;;4991580;28;20236;-82
2023/09/12 09:17:12;;;;;;;7.93;7.10;;;;;;;;;;4991842;28;20201;-82
2023/09/12 09:19:43;;;;;;;9.65;7.18;;;;;;;;;;4991627;28;20655;-83
2023/09/12 09:22:10;;;;;;;10.35;7.60;;;;;;;;;;4991384;28;20276;-83
2023/09/12 09:24:38;;;;;;;7.88;7.07;;;;;;;;;;4992276;28;20198;-82
2023/09/12 09:27:05;;;;;;;8.95;7.40;;;;;;;;;;4991337;28;20665;-82
2023/09/12 09:29:33;;;;;;;8.85;6.95;;;;;;;;;;4991500;28;20650;-82
2023/09/12 09:32:02;;;;;;;7.82;6.57;;;;;;;;;;4991631;28;20193;-83
2023/09/12 09:34:31;;;;;;;8.07;6.82;;;;;;;;;;4992125;28;20767;-82
2023/09/12 09:36:58;;;;;;;7.63;6.47;;;;;;;;;;4995529;28;20692;-82
2023/09/12 09:39:26;;;;;;;8.38;7.07;;;;;;;;;;4995488;28;20674;-83
2023/09/12 09:41:54;;;;;;;7.97;6.10;;;;;;;;;;4995249;28;20233;-82
2023/09/12 09:44:23;;;;;;;7.15;6.45;;;;;;;;;;4995329;28;20319;-82
2023/09/12 09:46:52;;;;;;;7.30;5.65;;;;;;;;;;4995484;28;20446;-83
2023/09/12 09:49:22;;;;;;;6.32;5.72;;;;;;;;;;4995656;28;20208;-82
2023/09/12 09:51:49;;;;;;;7.60;6.18;;;;;;;;;;4995331;28;20285;-83
2023/09/12 09:54:16;;;;;;;6.97;5.70;;;;;;;;;;4995228;28;20622;-83
2023/09/12 09:56:47;;;;;;;7.85;6.00;;;;;;;;;;4995035;28;20225;-82
2023/09/12 09:59:16;;;;;;;5.88;4.97;;;;;;;;;;4995433;28;20209;-82
2023/09/12 10:01:44;;;;;;;5.93;4.57;;;;;;;;;;4995079;28;20533;-84
2023/09/12 10:04:12;;;;;;;5.65;4.30;;;;;;;;;;4995056;28;20300;-83
2023/09/12 10:06:40;;;;;;;5.35;3.55;;;;;;;;;;4994817;28;20320;-82
2023/09/12 10:09:09;;;;;;;6.82;4.20;;;;;;;;;;4995079;28;20202;-83
2023/09/12 10:11:38;;;;;;;4.35;3.78;;;;;;;;;;4994405;28;20253;-83
2023/09/12 10:14:06;;;;;;;5.18;3.92;;;;;;;;;;4994637;28;20301;-82
2023/09/12 10:16:34;;;;;;;6.00;3.30;;;;;;;;;;4995028;28;20534;-83
2023/09/12 10:19:06;;;;;;;3.47;2.63;;;;;;;;;;4995041;28;20244;-83
2023/09/12 10:21:35;;;;;;;4.20;3.08;;;;;;;;;;4994925;28;20677;-83
2023/09/12 10:24:05;;;;;;;5.97;3.60;;;;;;;;;;4994664;28;20310;-82
2023/09/12 10:26:33;;;;;;;2.15;1.70;;;;;;;;;;4994223;28;20229;-82
2023/09/12 10:29:01;;;;;;;2.75;2.15;;;;;;;;;;4994420;28;20201;-82
2023/09/12 10:31:28;;;;;;;4.35;2.53;;;;;;;;;;4994627;28;20205;-81
2023/09/12 10:33:55;;;;;;;3.33;2.53;;;;;;;;;;4995149;28;20236;-83
2023/09/12 10:36:23;;;;;;;3.70;3.03;;;;;;;;;;4994514;28;20284;-83
2023/09/12 10:38:51;;;;;;;4.65;2.72;;;;;;;;;;4994402;28;20724;-82
2023/09/12 10:41:20;;;;;;;2.97;2.00;;;;;;;;;;4994197;28;20284;-82
2023/09/12 10:43:52;;;;;;;2.63;2.20;;;;;;;;;;4994272;28;20990;-82
2023/09/12 10:46:21;;;;;;;4.65;2.63;;;;;;;;;;4993530;28;20263;-83
2023/09/12 10:48:49;;;;;;;3.72;2.15;;;;;;;;;;4994500;28;20197;-82
2023/09/12 10:51:17;;;;;;;2.55;2.35;;;;;;;;;;4994490;28;20252;-83
2023/09/12 10:53:49;;;;;;;3.55;3.00;;;;;;;;;;4994099;28;20261;-83
2023/09/12 10:56:18;;;;;;;3.38;3.08;;;;;;;;;;4993743;28;20197;-82
2023/09/12 10:59:04;;;;;;;3.20;2.90;;;;;;;;;;4994528;28;20221;-83
2023/09/12 11:01:33;;;;;;;4.50;3.20;;;;;;;;;;4994450;28;20604;-83
2023/09/12 11:04:00;;;;;;;4.45;3.00;;;;;;;;;;4994105;28;20225;-83
2023/09/12 11:06:30;;;;;;;6.60;2.75;;;;;;;;;;4994154;28;20372;-82
2023/09/12 11:09:16;;;;;;;5.65;2.95;;;;;;;;;;4993939;28;20293;-82
2023/09/12 11:11:45;;;;;;;7.22;2.53;;;;;;;;;;4993799;28;20202;-81
2023/09/12 11:14:12;;;;;;;4.47;2.25;;;;;;;;;;4993788;28;20668;-82
2023/09/12 11:16:41;;;;;;;2.00;1.80;;;;;;;;;;4993564;28;20895;-81
2023/09/12 11:19:15;;;;;;;3.95;2.17;;;;;;;;;;4993661;28;20317;-81
2023/09/12 11:21:43;;;;;;;2.50;2.10;;;;;;;;;;4993363;28;20225;-81
2023/09/12 11:24:10;;;;;;;3.60;2.10;;;;;;;;;;4993223;28;20285;-81
2023/09/12 11:26:53;;;;;;;2.42;1.80;;;;;;;;;;4993730;28;20279;-81
2023/09/12 11:29:21;;;;;;;4.38;1.75;;;;;;;;;;4993706;28;20198;-82
2023/09/12 11:31:57;;;;;;;4.15;2.00;;;;;;;;;;4993714;28;20198;-82
2023/09/12 11:34:26;;;;;;;3.05;1.77;;;;;;;;;;4993395;28;20285;-82
2023/09/12 11:36:56;;;;;;;2.33;1.80;;;;;;;;;;4993903;28;20198;-82
2023/09/12 11:39:27;;;;;;;3.72;1.70;;;;;;;;;;4993155;28;20202;-82
2023/09/12 11:41:55;;;;;;;3.33;1.65;;;;;;;;;;4993172;28;20699;-82
2023/09/12 11:44:23;;;;;;;1.98;1.05;;;;;;;;;;4993003;28;20229;-82
2023/09/12 11:46:51;;;;;;;2.60;1.35;;;;;;;;;;4993533;28;20226;-82
2023/09/12 11:49:20;;;;;;;1.98;1.27;;;;;;;;;;4993330;28;20322;-83
2023/09/12 11:51:51;;;;;;;1.83;1.10;;;;;;;;;;4992771;28;20202;-82
2023/09/12 11:54:20;;;;;;;2.35;1.27;;;;;;;;;;4992642;28;20353;-82
2023/09/12 11:56:49;;;;;;;1.55;1.42;;;;;;;;;;4992923;28;20206;-81
2023/09/12 11:59:18;;;;;;;2.38;1.30;;;;;;;;;;4992367;28;20205;-82
2023/09/12 12:01:46;;;;;;;2.20;1.30;;;;;;;;;;4992946;28;20202;-82
2023/09/12 12:04:13;;;;;;;2.95;1.60;;;;;;;;;;4993111;28;20289;-82
2023/09/12 12:06:43;;;;;;;1.92;1.05;;;;;;;;;;4992494;28;20321;-83
2023/09/12 12:09:11;;;;;;;1.77;1.10;;;;;;;;;;4992386;28;20545;-82
2023/09/12 12:11:39;;;;;;;1.52;1.05;;;;;;;;;;4992839;28;20248;-82
2023/09/12 12:14:13;;;;;;;2.38;1.05;;;;;;;;;;4992766;28;20198;-82
2023/09/12 12:16:41;;;;;;;2.15;1.20;;;;;;;;;;4992726;28;20845;-82
2023/09/12 12:19:08;;;;;;;1.60;1.17;;;;;;;;;;4992392;28;20296;-81
2023/09/12 12:21:35;;;;;;;1.60;1.00;;;;;;;;;;4992890;28;20230;-82
2023/09/12 12:24:04;;;;;;;2.20;0.95;;;;;;;;;;4992488;28;20236;-82
2023/09/12 12:26:32;;;;;;;5.78;1.13;;;;;;;;;;4992508;28;20206;-83
2023/09/12 12:29:00;;;;;;;1.45;1.00;;;;;;;;;;4992782;28;20684;-82
2023/09/12 12:31:27;;;;;;;1.83;1.00;;;;;;;;;;4992193;28;20202;-82
2023/09/12 12:33:55;;;;;;;1.40;1.10;;;;;;;;;;4992519;28;20653;-82
2023/09/12 12:36:22;;;;;;;3.53;1.30;;;;;;;;;;4991675;28;20249;-82
2023/09/12 12:38:50;;;;;;;2.30;1.10;;;;;;;;;;4992427;28;20284;-82
2023/09/12 12:41:23;;;;;;;2.42;1.45;;;;;;;;;;4992435;28;20233;-82
2023/09/12 12:43:51;;;;;;;3.30;1.10;;;;;;;;;;4992156;28;20288;-82
2023/09/12 12:46:19;;;;;;;2.08;1.30;;;;;;;;;;4992040;28;20198;-82
2023/09/12 12:48:46;;;;;;;1.52;0.90;;;;;;;;;;4992290;28;20230;-82
2023/09/12 12:51:16;;;;;;;1.73;1.00;;;;;;;;;;4991904;28;20229;-83
2023/09/12 12:53:44;;;;;;;1.48;1.00;;;;;;;;;;4991854;28;20716;-82
2023/09/12 12:56:13;;;;;;;2.45;1.10;;;;;;;;;;4991967;28;20236;-81
2023/09/12 12:58:46;;;;;;;2.42;1.20;;;;;;;;;;4992147;28;20202;-82
2023/09/12 13:01:13;;;;;;;2.30;1.00;;;;;;;;;;4992218;28;20743;-82
2023/09/12 13:03:41;;;;;;;1.65;1.20;;;;;;;;;;4991927;28;20226;-82
2023/09/12 13:06:13;;;;;;;5.25;1.45;;;;;;;;;;4991434;28;20753;-81
2023/09/12 13:08:40;;;;;;;2.63;1.10;;;;;;;;;;4991688;28;20606;-82
2023/09/12 13:11:08;;;;;;;5.03;1.52;;;;;;;;;;4991828;28;20217;-82
2023/09/12 13:13:36;;;;;;;2.30;1.35;;;;;;;;;;4991858;28;20292;-81
2023/09/12 13:16:05;;;;;;;1.77;1.40;;;;;;;;;;4992030;28;20205;-82
2023/09/12 13:18:33;;;;;;;3.22;1.40;;;;;;;;;;4991793;28;20205;-82
2023/09/12 13:21:00;;;;;;;4.78;1.40;;;;;;;;;;4991674;28;20225;-81
2023/09/12 13:23:27;;;;;;;2.88;1.10;;;;;;;;;;4991473;28;20233;-82
2023/09/12 13:25:54;;;;;;;2.03;1.20;;;;;;;;;;4992236;28;20225;-82
2023/09/12 13:28:23;;;;;;;2.38;1.05;;;;;;;;;;4991610;28;20232;-82
2023/09/12 13:30:50;;;;;;;2.58;1.20;;;;;;;;;;4991760;28;20197;-82
2023/09/12 13:33:19;;;;;;;1.98;1.15;;;;;;;;;;4992254;28;20255;-81
2023/09/12 13:35:46;;;;;;;2.40;1.33;;;;;;;;;;4991647;28;20244;-83
2023/09/12 13:38:13;;;;;;;2.20;1.40;;;;;;;;;;4992319;28;20194;-82
2023/09/12 13:40:41;;;;;;;2.47;1.27;;;;;;;;;;4991622;28;20233;-82
2023/09/12 13:43:09;;;;;;;2.85;1.40;;;;;;;;;;4991683;28;20256;-82
2023/09/12 13:45:36;;;;;;;2.63;1.52;;;;;;;;;;4991968;28;20230;-82
2023/09/12 13:48:04;;;;;;;2.85;1.50;;;;;;;;;;4991502;28;20329;-82
2023/09/12 13:50:33;;;;;;;2.38;1.30;;;;;;;;;;4991407;28;20204;-82
2023/09/12 13:53:03;;;;;;;2.83;1.40;;;;;;;;;;4991223;28;20229;-82
2023/09/12 13:55:30;;;;;;;2.03;1.65;;;;;;;;;;4991368;28;20748;-82
2023/09/12 13:57:58;;;;;;;2.08;1.52;;;;;;;;;;4991740;28;20205;-81
2023/09/12 14:00:26;;;;;;;3.40;1.50;;;;;;;;;;4991533;28;20206;-81
2023/09/12 14:02:53;;;;;;;1.98;1.30;;;;;;;;;;4991105;28;20673;-82
2023/09/12 14:05:20;;;;;;;3.60;1.48;;;;;;;;;;4991463;28;20232;-83
2023/09/12 14:07:49;;;;;;;2.65;1.38;;;;;;;;;;4991220;28;20791;-82
2023/09/12 14:10:16;;;;;;;1.35;1.25;;;;;;;;;;4991586;28;20198;-82
2023/09/12 14:12:44;;;;;;;1.77;1.30;;;;;;;;;;4991461;28;20293;-81
2023/09/12 14:15:12;;;;;;;2.17;1.48;;;;;;;;;;4991269;28;20201;-82
2023/09/12 14:17:39;;;;;;;2.50;1.45;;;;;;;;;;4990610;28;20206;-82
2023/09/12 14:20:08;;;;;;;1.63;1.48;;;;;;;;;;4991137;28;20292;-82
2023/09/12 14:22:35;;;;;;;2.17;1.70;;;;;;;;;;4993430;28;20205;-82
2023/09/12 14:25:05;;;;;;;2.70;1.67;;;;;;;;;;4995284;28;20289;-82
2023/09/12 14:27:32;;;;;;;3.00;1.27;;;;;;;;;;4994825;28;20232;-81
2023/09/12 14:29:59;;;;;;;1.75;1.48;;;;;;;;;;4994491;28;20234;-82
2023/09/12 14:32:26;;;;;;;4.63;1.63;;;;;;;;;;4994313;28;20205;-82
2023/09/12 14:34:54;;;;;;;3.00;1.40;;;;;;;;;;4994549;28;20222;-82
2023/09/12 14:37:22;;;;;;;2.90;1.40;;;;;;;;;;4994844;28;20240;-82
2023/09/12 14:39:50;;;;;;;5.22;1.60;;;;;;;;;;4994954;28;20197;-82